In Rescue
 
Open Full Screen Window  High Contrast Mode
Wind Gusting 00 knots
04
June 22, 2024 9:30 PM CDT
Weather Information
Wind Direction
  360 °
Wind Speed
  04 kt (5 mph)
Wind Gust
  00 kt (0 mph)
Altimeter
29.85 in
Visibility
10 SM
Temperature
18° C
64° F
Dewpoint
16° C
61° F
Humidity
88%
Sky Condition
Overcast @ 1,600 ft
MVFR

METAR KLJF 230230Z AUTO 36004KT 10SM OVC016 18/16 A2985 RMK AO2

FAA Disclaimer: The data displayed is for advisory purposes only and is not to be used for flight planning or operations.